sensor_id;sensor_type;location;lat;lon;timestamp;temperature;humidity
51476;DHT22;37554;50.362;7.568;2024-02-21T00:00:14;14.50;60.60
51476;DHT22;37554;50.362;7.568;2024-02-21T00:02:40;14.50;60.60
51476;DHT22;37554;50.362;7.568;2024-02-21T00:05:05;14.50;60.60
51476;DHT22;37554;50.362;7.568;2024-02-21T00:07:31;14.50;60.50
51476;DHT22;37554;50.362;7.568;2024-02-21T00:09:57;14.40;60.50
51476;DHT22;37554;50.362;7.568;2024-02-21T00:12:22;14.50;60.50
51476;DHT22;37554;50.362;7.568;2024-02-21T00:14:48;14.40;60.50
51476;DHT22;37554;50.362;7.568;2024-02-21T00:17:14;14.40;60.40
51476;DHT22;37554;50.362;7.568;2024-02-21T00:19:39;14.40;60.40
51476;DHT22;37554;50.362;7.568;2024-02-21T00:22:05;14.40;60.40
51476;DHT22;37554;50.362;7.568;2024-02-21T00:24:30;14.40;60.40
51476;DHT22;37554;50.362;7.568;2024-02-21T00:26:56;14.40;60.40
51476;DHT22;37554;50.362;7.568;2024-02-21T00:29:21;14.40;60.40
51476;DHT22;37554;50.362;7.568;2024-02-21T00:31:49;14.40;60.40
51476;DHT22;37554;50.362;7.568;2024-02-21T00:34:14;14.40;60.40
51476;DHT22;37554;50.362;7.568;2024-02-21T00:36:40;14.40;60.40
51476;DHT22;37554;50.362;7.568;2024-02-21T00:39:05;14.40;60.40
51476;DHT22;37554;50.362;7.568;2024-02-21T00:41:31;14.40;60.40
51476;DHT22;37554;50.362;7.568;2024-02-21T00:43:57;14.40;60.40
51476;DHT22;37554;50.362;7.568;2024-02-21T00:46:23;14.40;60.40
51476;DHT22;37554;50.362;7.568;2024-02-21T00:48:48;14.40;60.40
51476;DHT22;37554;50.362;7.568;2024-02-21T00:51:15;14.40;60.40
51476;DHT22;37554;50.362;7.568;2024-02-21T00:53:41;14.40;60.30
51476;DHT22;37554;50.362;7.568;2024-02-21T00:56:07;14.40;60.30
51476;DHT22;37554;50.362;7.568;2024-02-21T00:58:32;14.40;60.30
51476;DHT22;37554;50.362;7.568;2024-02-21T01:00:58;14.40;60.30
51476;DHT22;37554;50.362;7.568;2024-02-21T01:03:24;14.40;60.20
51476;DHT22;37554;50.362;7.568;2024-02-21T01:05:49;14.40;60.20
51476;DHT22;37554;50.362;7.568;2024-02-21T01:08:15;14.40;60.20
51476;DHT22;37554;50.362;7.568;2024-02-21T01:10:40;14.40;60.20
51476;DHT22;37554;50.362;7.568;2024-02-21T01:13:06;14.40;60.20
51476;DHT22;37554;50.362;7.568;2024-02-21T01:15:32;14.40;60.20
51476;DHT22;37554;50.362;7.568;2024-02-21T01:17:58;14.30;60.20
51476;DHT22;37554;50.362;7.568;2024-02-21T01:20:24;14.40;60.30
51476;DHT22;37554;50.362;7.568;2024-02-21T01:22:50;14.40;60.30
51476;DHT22;37554;50.362;7.568;2024-02-21T01:25:15;14.30;60.20
51476;DHT22;37554;50.362;7.568;2024-02-21T01:27:41;14.30;60.20
51476;DHT22;37554;50.362;7.568;2024-02-21T01:30:09;14.30;60.30
51476;DHT22;37554;50.362;7.568;2024-02-21T01:32:36;14.30;60.30
51476;DHT22;37554;50.362;7.568;2024-02-21T01:35:01;14.30;60.30
51476;DHT22;37554;50.362;7.568;2024-02-21T01:37:27;14.30;60.30
51476;DHT22;37554;50.362;7.568;2024-02-21T01:39:53;14.30;60.20
51476;DHT22;37554;50.362;7.568;2024-02-21T01:42:18;14.30;60.20
51476;DHT22;37554;50.362;7.568;2024-02-21T01:44:44;14.30;60.20
51476;DHT22;37554;50.362;7.568;2024-02-21T01:47:11;14.30;60.30
51476;DHT22;37554;50.362;7.568;2024-02-21T01:49:40;14.30;60.30
51476;DHT22;37554;50.362;7.568;2024-02-21T01:52:05;14.30;60.30
51476;DHT22;37554;50.362;7.568;2024-02-21T01:54:31;14.30;60.20
51476;DHT22;37554;50.362;7.568;2024-02-21T01:56:58;14.30;60.20
51476;DHT22;37554;50.362;7.568;2024-02-21T01:59:24;14.30;60.20
51476;DHT22;37554;50.362;7.568;2024-02-21T02:01:51;14.30;60.20
51476;DHT22;37554;50.362;7.568;2024-02-21T02:04:17;14.30;60.30
51476;DHT22;37554;50.362;7.568;2024-02-21T02:06:42;14.30;60.20
51476;DHT22;37554;50.362;7.568;2024-02-21T02:09:08;14.30;60.20
51476;DHT22;37554;50.362;7.568;2024-02-21T02:11:35;14.30;60.20
51476;DHT22;37554;50.362;7.568;2024-02-21T02:14:01;14.30;60.20
51476;DHT22;37554;50.362;7.568;2024-02-21T02:16:26;14.30;60.20
51476;DHT22;37554;50.362;7.568;2024-02-21T02:18:52;14.30;60.20
51476;DHT22;37554;50.362;7.568;2024-02-21T02:21:32;14.30;60.20
51476;DHT22;37554;50.362;7.568;2024-02-21T02:23:59;14.30;60.20
51476;DHT22;37554;50.362;7.568;2024-02-21T02:26:25;14.30;60.20
51476;DHT22;37554;50.362;7.568;2024-02-21T02:28:50;14.30;60.20
51476;DHT22;37554;50.362;7.568;2024-02-21T02:31:16;14.30;60.20
51476;DHT22;37554;50.362;7.568;2024-02-21T02:33:44;14.30;60.20
51476;DHT22;37554;50.362;7.568;2024-02-21T02:36:10;14.30;60.20
51476;DHT22;37554;50.362;7.568;2024-02-21T02:38:36;14.20;60.20
51476;DHT22;37554;50.362;7.568;2024-02-21T02:41:02;14.20;60.20
51476;DHT22;37554;50.362;7.568;2024-02-21T02:43:28;14.30;60.20
51476;DHT22;37554;50.362;7.568;2024-02-21T02:45:53;14.20;60.20
51476;DHT22;37554;50.362;7.568;2024-02-21T02:48:19;14.20;60.20
51476;DHT22;37554;50.362;7.568;2024-02-21T02:50:45;14.20;60.20
51476;DHT22;37554;50.362;7.568;2024-02-21T02:53:11;14.20;60.90
51476;DHT22;37554;50.362;7.568;2024-02-21T02:55:36;14.20;60.20
51476;DHT22;37554;50.362;7.568;2024-02-21T02:58:02;14.20;60.30
51476;DHT22;37554;50.362;7.568;2024-02-21T03:00:28;14.20;60.20
51476;DHT22;37554;50.362;7.568;2024-02-21T03:02:54;14.20;60.20
51476;DHT22;37554;50.362;7.568;2024-02-21T03:05:20;14.20;60.30
51476;DHT22;37554;50.362;7.568;2024-02-21T03:07:47;14.20;60.20
51476;DHT22;37554;50.362;7.568;2024-02-21T03:10:14;14.20;60.20
51476;DHT22;37554;50.362;7.568;2024-02-21T03:12:42;14.20;60.30
51476;DHT22;37554;50.362;7.568;2024-02-21T03:15:08;14.20;60.30
51476;DHT22;37554;50.362;7.568;2024-02-21T03:17:34;14.20;60.30
51476;DHT22;37554;50.362;7.568;2024-02-21T03:20:00;14.20;60.20
51476;DHT22;37554;50.362;7.568;2024-02-21T03:22:26;14.20;60.30
51476;DHT22;37554;50.362;7.568;2024-02-21T03:24:51;14.20;60.30
51476;DHT22;37554;50.362;7.568;2024-02-21T03:27:17;14.20;60.30
51476;DHT22;37554;50.362;7.568;2024-02-21T03:29:43;14.20;60.30
51476;DHT22;37554;50.362;7.568;2024-02-21T03:32:09;14.20;60.30
51476;DHT22;37554;50.362;7.568;2024-02-21T03:34:35;14.20;60.30
51476;DHT22;37554;50.362;7.568;2024-02-21T03:37:00;14.20;60.40
51476;DHT22;37554;50.362;7.568;2024-02-21T03:39:26;14.20;60.30
51476;DHT22;37554;50.362;7.568;2024-02-21T03:41:51;14.20;60.30
51476;DHT22;37554;50.362;7.568;2024-02-21T03:44:17;14.20;60.30
51476;DHT22;37554;50.362;7.568;2024-02-21T03:46:43;14.20;60.40
51476;DHT22;37554;50.362;7.568;2024-02-21T03:49:08;14.20;60.30
51476;DHT22;37554;50.362;7.568;2024-02-21T03:51:34;14.20;60.40
51476;DHT22;37554;50.362;7.568;2024-02-21T03:53:59;14.20;60.40
51476;DHT22;37554;50.362;7.568;2024-02-21T03:56:25;14.20;60.30
51476;DHT22;37554;50.362;7.568;2024-02-21T03:58:50;14.20;60.30
51476;DHT22;37554;50.362;7.568;2024-02-21T04:01:16;14.20;60.40
51476;DHT22;37554;50.362;7.568;2024-02-21T04:03:43;14.20;61.00
51476;DHT22;37554;50.362;7.568;2024-02-21T04:06:09;14.20;60.40
51476;DHT22;37554;50.362;7.568;2024-02-21T04:08:35;14.20;60.30
51476;DHT22;37554;50.362;7.568;2024-02-21T04:11:01;14.20;60.40
51476;DHT22;37554;50.362;7.568;2024-02-21T04:13:26;14.20;60.40
51476;DHT22;37554;50.362;7.568;2024-02-21T04:15:52;14.20;60.40
51476;DHT22;37554;50.362;7.568;2024-02-21T04:18:18;14.10;60.30
51476;DHT22;37554;50.362;7.568;2024-02-21T04:20:43;14.20;60.40
51476;DHT22;37554;50.362;7.568;2024-02-21T04:23:09;14.10;60.30
51476;DHT22;37554;50.362;7.568;2024-02-21T04:25:34;14.20;60.40
51476;DHT22;37554;50.362;7.568;2024-02-21T04:28:00;14.10;60.30
51476;DHT22;37554;50.362;7.568;2024-02-21T04:30:26;14.10;60.30
51476;DHT22;37554;50.362;7.568;2024-02-21T04:32:51;14.10;60.30
51476;DHT22;37554;50.362;7.568;2024-02-21T04:35:17;14.10;60.30
51476;DHT22;37554;50.362;7.568;2024-02-21T04:37:42;14.10;60.30
51476;DHT22;37554;50.362;7.568;2024-02-21T04:40:08;14.10;60.30
51476;DHT22;37554;50.362;7.568;2024-02-21T04:42:34;14.10;60.30
51476;DHT22;37554;50.362;7.568;2024-02-21T04:45:00;14.10;60.30
51476;DHT22;37554;50.362;7.568;2024-02-21T04:47:26;14.10;60.30
51476;DHT22;37554;50.362;7.568;2024-02-21T04:49:52;14.10;60.30
51476;DHT22;37554;50.362;7.568;2024-02-21T04:52:18;14.10;60.30
51476;DHT22;37554;50.362;7.568;2024-02-21T04:54:44;14.10;60.30
51476;DHT22;37554;50.362;7.568;2024-02-21T04:57:09;14.10;60.30
51476;DHT22;37554;50.362;7.568;2024-02-21T04:59:36;14.10;60.20
51476;DHT22;37554;50.362;7.568;2024-02-21T05:02:02;14.10;60.30
51476;DHT22;37554;50.362;7.568;2024-02-21T05:04:27;14.10;60.30
51476;DHT22;37554;50.362;7.568;2024-02-21T05:06:53;14.10;60.30
51476;DHT22;37554;50.362;7.568;2024-02-21T05:09:18;14.10;60.30
51476;DHT22;37554;50.362;7.568;2024-02-21T05:11:44;14.10;60.20
51476;DHT22;37554;50.362;7.568;2024-02-21T05:14:09;14.10;60.20
51476;DHT22;37554;50.362;7.568;2024-02-21T05:16:35;14.10;60.20
51476;DHT22;37554;50.362;7.568;2024-02-21T05:19:00;14.10;60.20
51476;DHT22;37554;50.362;7.568;2024-02-21T05:21:26;14.10;60.30
51476;DHT22;37554;50.362;7.568;2024-02-21T05:23:53;14.10;60.20
51476;DHT22;37554;50.362;7.568;2024-02-21T05:26:26;14.10;60.20
51476;DHT22;37554;50.362;7.568;2024-02-21T05:28:52;14.10;60.20
51476;DHT22;37554;50.362;7.568;2024-02-21T05:31:19;14.10;60.20
51476;DHT22;37554;50.362;7.568;2024-02-21T05:33:45;14.10;60.30
51476;DHT22;37554;50.362;7.568;2024-02-21T05:36:11;14.10;60.20
51476;DHT22;37554;50.362;7.568;2024-02-21T05:38:37;14.10;60.20
51476;DHT22;37554;50.362;7.568;2024-02-21T05:41:03;14.10;60.30
51476;DHT22;37554;50.362;7.568;2024-02-21T05:43:29;14.10;60.20
51476;DHT22;37554;50.362;7.568;2024-02-21T05:45:55;14.00;60.90
51476;DHT22;37554;50.362;7.568;2024-02-21T05:48:21;14.00;60.20
51476;DHT22;37554;50.362;7.568;2024-02-21T05:50:47;14.00;60.20
51476;DHT22;37554;50.362;7.568;2024-02-21T05:53:12;14.00;60.20
51476;DHT22;37554;50.362;7.568;2024-02-21T05:55:38;14.00;60.20
51476;DHT22;37554;50.362;7.568;2024-02-21T05:58:04;14.00;60.20
51476;DHT22;37554;50.362;7.568;2024-02-21T06:00:31;14.00;60.10
51476;DHT22;37554;50.362;7.568;2024-02-21T06:02:58;14.00;60.20
51476;DHT22;37554;50.362;7.568;2024-02-21T06:05:23;14.00;60.10
51476;DHT22;37554;50.362;7.568;2024-02-21T06:07:49;14.00;60.10
51476;DHT22;37554;50.362;7.568;2024-02-21T06:10:15;14.00;60.10
51476;DHT22;37554;50.362;7.568;2024-02-21T06:12:41;14.00;60.10
51476;DHT22;37554;50.362;7.568;2024-02-21T06:15:07;14.00;60.10
51476;DHT22;37554;50.362;7.568;2024-02-21T06:17:32;14.00;60.10
51476;DHT22;37554;50.362;7.568;2024-02-21T06:19:58;14.00;60.10
51476;DHT22;37554;50.362;7.568;2024-02-21T06:22:24;14.00;60.00
51476;DHT22;37554;50.362;7.568;2024-02-21T06:24:49;14.00;60.00
51476;DHT22;37554;50.362;7.568;2024-02-21T06:27:15;14.00;60.00
51476;DHT22;37554;50.362;7.568;2024-02-21T06:29:42;14.00;60.00
51476;DHT22;37554;50.362;7.568;2024-02-21T06:32:07;14.00;60.00
51476;DHT22;37554;50.362;7.568;2024-02-21T06:34:33;14.00;60.00
51476;DHT22;37554;50.362;7.568;2024-02-21T06:36:58;14.00;59.90
51476;DHT22;37554;50.362;7.568;2024-02-21T06:39:24;14.00;59.90
51476;DHT22;37554;50.362;7.568;2024-02-21T06:41:50;14.00;59.90
51476;DHT22;37554;50.362;7.568;2024-02-21T06:44:17;14.00;59.90
51476;DHT22;37554;50.362;7.568;2024-02-21T06:46:43;14.00;59.90
51476;DHT22;37554;50.362;7.568;2024-02-21T06:49:08;14.00;59.80
51476;DHT22;37554;50.362;7.568;2024-02-21T06:51:34;14.00;59.80
51476;DHT22;37554;50.362;7.568;2024-02-21T06:54:00;14.00;59.80
51476;DHT22;37554;50.362;7.568;2024-02-21T06:56:26;14.10;59.90
51476;DHT22;37554;50.362;7.568;2024-02-21T06:58:56;14.10;59.90
51476;DHT22;37554;50.362;7.568;2024-02-21T07:01:22;14.10;59.80
51476;DHT22;37554;50.362;7.568;2024-02-21T07:03:48;14.10;59.80
51476;DHT22;37554;50.362;7.568;2024-02-21T07:06:13;14.10;59.80
51476;DHT22;37554;50.362;7.568;2024-02-21T07:08:39;14.00;58.70
51476;DHT22;37554;50.362;7.568;2024-02-21T07:11:05;13.80;58.20
51476;DHT22;37554;50.362;7.568;2024-02-21T07:13:31;13.70;58.40
51476;DHT22;37554;50.362;7.568;2024-02-21T07:15:57;13.60;58.20
51476;DHT22;37554;50.362;7.568;2024-02-21T07:18:22;13.60;58.10
51476;DHT22;37554;50.362;7.568;2024-02-21T07:20:51;13.60;58.20
51476;DHT22;37554;50.362;7.568;2024-02-21T07:23:16;13.80;58.30
51476;DHT22;37554;50.362;7.568;2024-02-21T07:25:42;13.90;58.50
51476;DHT22;37554;50.362;7.568;2024-02-21T07:28:08;14.00;58.70
51476;DHT22;37554;50.362;7.568;2024-02-21T07:30:33;14.10;58.60
51476;DHT22;37554;50.362;7.568;2024-02-21T07:32:59;14.10;58.50
51476;DHT22;37554;50.362;7.568;2024-02-21T07:35:25;14.10;59.10
51476;DHT22;37554;50.362;7.568;2024-02-21T07:37:50;14.20;58.40
51476;DHT22;37554;50.362;7.568;2024-02-21T07:40:16;14.20;58.40
51476;DHT22;37554;50.362;7.568;2024-02-21T07:42:42;14.20;58.40
51476;DHT22;37554;50.362;7.568;2024-02-21T07:45:09;14.30;58.40
51476;DHT22;37554;50.362;7.568;2024-02-21T07:47:36;14.30;58.40
51476;DHT22;37554;50.362;7.568;2024-02-21T07:50:03;14.30;58.40
51476;DHT22;37554;50.362;7.568;2024-02-21T07:52:29;14.30;58.40
51476;DHT22;37554;50.362;7.568;2024-02-21T07:54:54;14.40;58.50
51476;DHT22;37554;50.362;7.568;2024-02-21T07:57:20;14.40;58.50
51476;DHT22;37554;50.362;7.568;2024-02-21T07:59:46;14.40;58.50
51476;DHT22;37554;50.362;7.568;2024-02-21T08:02:15;14.40;58.50
51476;DHT22;37554;50.362;7.568;2024-02-21T08:04:41;14.40;58.50
51476;DHT22;37554;50.362;7.568;2024-02-21T08:07:07;14.50;58.50
51476;DHT22;37554;50.362;7.568;2024-02-21T08:09:33;14.50;58.50
51476;DHT22;37554;50.362;7.568;2024-02-21T08:12:00;14.50;58.50
51476;DHT22;37554;50.362;7.568;2024-02-21T08:14:26;14.50;58.50
51476;DHT22;37554;50.362;7.568;2024-02-21T08:16:52;14.60;58.50
51476;DHT22;37554;50.362;7.568;2024-02-21T08:19:21;14.60;58.50
51476;DHT22;37554;50.362;7.568;2024-02-21T08:21:48;14.60;58.50
51476;DHT22;37554;50.362;7.568;2024-02-21T08:24:14;14.60;58.50
51476;DHT22;37554;50.362;7.568;2024-02-21T08:26:44;14.70;58.40
51476;DHT22;37554;50.362;7.568;2024-02-21T08:29:12;14.70;58.30
51476;DHT22;37554;50.362;7.568;2024-02-21T08:31:38;14.70;58.30
51476;DHT22;37554;50.362;7.568;2024-02-21T08:34:04;14.80;58.20
51476;DHT22;37554;50.362;7.568;2024-02-21T08:36:31;14.80;58.10
51476;DHT22;37554;50.362;7.568;2024-02-21T08:38:57;14.90;58.00
51476;DHT22;37554;50.362;7.568;2024-02-21T08:41:24;14.90;57.80
51476;DHT22;37554;50.362;7.568;2024-02-21T08:43:53;15.00;57.80
51476;DHT22;37554;50.362;7.568;2024-02-21T08:46:23;15.00;57.80
51476;DHT22;37554;50.362;7.568;2024-02-21T08:48:50;14.90;56.20
51476;DHT22;37554;50.362;7.568;2024-02-21T08:51:17;14.60;55.90
51476;DHT22;37554;50.362;7.568;2024-02-21T08:53:43;14.30;56.00
51476;DHT22;37554;50.362;7.568;2024-02-21T08:56:09;14.20;56.00
51476;DHT22;37554;50.362;7.568;2024-02-21T08:58:39;14.20;56.40
51476;DHT22;37554;50.362;7.568;2024-02-21T09:01:05;14.40;56.30
51476;DHT22;37554;50.362;7.568;2024-02-21T09:03:32;14.70;56.20
51476;DHT22;37554;50.362;7.568;2024-02-21T09:05:58;14.80;56.00
51476;DHT22;37554;50.362;7.568;2024-02-21T09:08:24;15.00;55.80
51476;DHT22;37554;50.362;7.568;2024-02-21T09:10:50;15.10;55.70
51476;DHT22;37554;50.362;7.568;2024-02-21T09:13:16;15.20;55.60
51476;DHT22;37554;50.362;7.568;2024-02-21T09:15:42;15.30;55.50
51476;DHT22;37554;50.362;7.568;2024-02-21T09:18:08;15.40;55.50
51476;DHT22;37554;50.362;7.568;2024-02-21T09:20:34;15.50;55.40
51476;DHT22;37554;50.362;7.568;2024-02-21T09:22:59;15.60;55.40
51476;DHT22;37554;50.362;7.568;2024-02-21T09:25:25;15.70;55.40
51476;DHT22;37554;50.362;7.568;2024-02-21T09:27:58;15.80;55.20
51476;DHT22;37554;50.362;7.568;2024-02-21T09:30:23;15.90;55.20
51476;DHT22;37554;50.362;7.568;2024-02-21T09:32:49;16.00;55.10
51476;DHT22;37554;50.362;7.568;2024-02-21T09:35:15;16.10;54.90
51476;DHT22;37554;50.362;7.568;2024-02-21T09:37:41;16.20;54.90
51476;DHT22;37554;50.362;7.568;2024-02-21T09:40:06;16.30;54.80
51476;DHT22;37554;50.362;7.568;2024-02-21T09:42:39;16.40;54.60
51476;DHT22;37554;50.362;7.568;2024-02-21T09:45:08;16.50;54.50
51476;DHT22;37554;50.362;7.568;2024-02-21T09:50:14;16.50;54.30
51476;DHT22;37554;50.362;7.568;2024-02-21T09:52:40;16.60;54.40
51476;DHT22;37554;50.362;7.568;2024-02-21T09:55:07;16.60;54.30
51476;DHT22;37554;50.362;7.568;2024-02-21T09:57:36;16.70;54.40
51476;DHT22;37554;50.362;7.568;2024-02-21T10:00:04;16.70;54.20
51476;DHT22;37554;50.362;7.568;2024-02-21T10:02:33;16.70;54.20
51476;DHT22;37554;50.362;7.568;2024-02-21T10:04:58;16.70;54.10
51476;DHT22;37554;50.362;7.568;2024-02-21T10:07:24;16.80;54.10
51476;DHT22;37554;50.362;7.568;2024-02-21T10:10:03;16.80;54.00
51476;DHT22;37554;50.362;7.568;2024-02-21T10:12:29;16.80;53.80
51476;DHT22;37554;50.362;7.568;2024-02-21T10:15:05;16.90;53.90
51476;DHT22;37554;50.362;7.568;2024-02-21T10:17:35;16.90;53.70
51476;DHT22;37554;50.362;7.568;2024-02-21T10:20:11;17.00;53.80
51476;DHT22;37554;50.362;7.568;2024-02-21T10:22:38;17.00;53.50
51476;DHT22;37554;50.362;7.568;2024-02-21T10:27:34;17.10;53.40
51476;DHT22;37554;50.362;7.568;2024-02-21T10:29:59;17.20;53.30
51476;DHT22;37554;50.362;7.568;2024-02-21T10:32:25;17.30;53.20
51476;DHT22;37554;50.362;7.568;2024-02-21T10:35:01;17.30;53.10
51476;DHT22;37554;50.362;7.568;2024-02-21T10:37:26;17.40;52.90
51476;DHT22;37554;50.362;7.568;2024-02-21T10:39:53;17.40;52.80
51476;DHT22;37554;50.362;7.568;2024-02-21T10:42:21;17.40;52.80
51476;DHT22;37554;50.362;7.568;2024-02-21T10:44:52;17.50;52.80
51476;DHT22;37554;50.362;7.568;2024-02-21T10:47:19;17.50;52.70
51476;DHT22;37554;50.362;7.568;2024-02-21T10:49:50;17.50;52.60
51476;DHT22;37554;50.362;7.568;2024-02-21T10:52:31;17.50;52.70
51476;DHT22;37554;50.362;7.568;2024-02-21T10:55:05;17.50;52.70
51476;DHT22;37554;50.362;7.568;2024-02-21T10:57:37;17.50;52.70
51476;DHT22;37554;50.362;7.568;2024-02-21T11:00:04;17.50;52.80
51476;DHT22;37554;50.362;7.568;2024-02-21T11:02:34;17.50;52.80
51476;DHT22;37554;50.362;7.568;2024-02-21T11:05:01;17.50;52.80
51476;DHT22;37554;50.362;7.568;2024-02-21T11:07:29;17.50;52.80
51476;DHT22;37554;50.362;7.568;2024-02-21T11:09:55;17.50;52.90
51476;DHT22;37554;50.362;7.568;2024-02-21T11:12:21;17.50;52.90
51476;DHT22;37554;50.362;7.568;2024-02-21T11:14:47;17.50;52.90
51476;DHT22;37554;50.362;7.568;2024-02-21T11:17:19;17.50;53.00
51476;DHT22;37554;50.362;7.568;2024-02-21T11:19:52;17.50;53.00
51476;DHT22;37554;50.362;7.568;2024-02-21T11:22:18;17.50;53.00
51476;DHT22;37554;50.362;7.568;2024-02-21T11:24:45;17.50;52.90
51476;DHT22;37554;50.362;7.568;2024-02-21T11:29:46;17.50;52.80
51476;DHT22;37554;50.362;7.568;2024-02-21T11:32:19;17.50;52.60
51476;DHT22;37554;50.362;7.568;2024-02-21T11:34:59;17.50;52.60
51476;DHT22;37554;50.362;7.568;2024-02-21T11:37:32;17.60;52.50
51476;DHT22;37554;50.362;7.568;2024-02-21T11:39:59;17.60;52.60
51476;DHT22;37554;50.362;7.568;2024-02-21T11:42:26;17.60;52.60
51476;DHT22;37554;50.362;7.568;2024-02-21T11:44:53;17.60;52.50
51476;DHT22;37554;50.362;7.568;2024-02-21T11:47:22;17.60;52.50
51476;DHT22;37554;50.362;7.568;2024-02-21T11:49:48;17.60;52.40
51476;DHT22;37554;50.362;7.568;2024-02-21T11:52:25;17.70;53.10
51476;DHT22;37554;50.362;7.568;2024-02-21T11:54:51;17.70;52.30
51476;DHT22;37554;50.362;7.568;2024-02-21T11:57:18;17.70;52.30
51476;DHT22;37554;50.362;7.568;2024-02-21T11:59:45;17.70;52.30
51476;DHT22;37554;50.362;7.568;2024-02-21T12:02:11;17.70;52.30
51476;DHT22;37554;50.362;7.568;2024-02-21T12:04:36;17.70;52.20
51476;DHT22;37554;50.362;7.568;2024-02-21T12:07:02;17.70;52.30
51476;DHT22;37554;50.362;7.568;2024-02-21T12:09:30;17.80;52.20
51476;DHT22;37554;50.362;7.568;2024-02-21T12:12:03;17.80;52.20
51476;DHT22;37554;50.362;7.568;2024-02-21T12:14:31;17.70;52.10
51476;DHT22;37554;50.362;7.568;2024-02-21T12:16:58;17.70;52.10
51476;DHT22;37554;50.362;7.568;2024-02-21T12:19:24;17.80;52.30
51476;DHT22;37554;50.362;7.568;2024-02-21T12:21:49;17.80;52.30
51476;DHT22;37554;50.362;7.568;2024-02-21T12:24:24;17.80;52.30
51476;DHT22;37554;50.362;7.568;2024-02-21T12:26:50;17.70;52.30
51476;DHT22;37554;50.362;7.568;2024-02-21T12:29:18;17.80;52.30
51476;DHT22;37554;50.362;7.568;2024-02-21T12:31:44;17.70;52.30
51476;DHT22;37554;50.362;7.568;2024-02-21T12:34:10;17.70;52.40
51476;DHT22;37554;50.362;7.568;2024-02-21T12:36:41;17.70;52.40
51476;DHT22;37554;50.362;7.568;2024-02-21T12:39:08;17.70;52.40
51476;DHT22;37554;50.362;7.568;2024-02-21T12:41:34;17.70;52.50
51476;DHT22;37554;50.362;7.568;2024-02-21T12:44:06;17.60;52.40
51476;DHT22;37554;50.362;7.568;2024-02-21T12:46:33;17.60;52.50
51476;DHT22;37554;50.362;7.568;2024-02-21T12:48:59;17.60;52.50
51476;DHT22;37554;50.362;7.568;2024-02-21T12:51:25;17.60;52.60
51476;DHT22;37554;50.362;7.568;2024-02-21T12:53:51;17.60;52.60
51476;DHT22;37554;50.362;7.568;2024-02-21T12:56:16;17.60;52.60
51476;DHT22;37554;50.362;7.568;2024-02-21T12:58:42;17.60;52.50
51476;DHT22;37554;50.362;7.568;2024-02-21T13:01:08;17.60;52.40
51476;DHT22;37554;50.362;7.568;2024-02-21T13:03:34;17.70;52.30
51476;DHT22;37554;50.362;7.568;2024-02-21T13:06:00;17.80;52.20
51476;DHT22;37554;50.362;7.568;2024-02-21T13:08:25;17.90;52.00
51476;DHT22;37554;50.362;7.568;2024-02-21T13:10:51;18.00;51.80
51476;DHT22;37554;50.362;7.568;2024-02-21T13:13:17;18.00;52.40
51476;DHT22;37554;50.362;7.568;2024-02-21T13:15:42;18.00;51.80
51476;DHT22;37554;50.362;7.568;2024-02-21T13:18:09;18.00;51.70
51476;DHT22;37554;50.362;7.568;2024-02-21T13:20:36;18.10;51.70
51476;DHT22;37554;50.362;7.568;2024-02-21T13:23:01;18.10;51.60
51476;DHT22;37554;50.362;7.568;2024-02-21T13:25:27;18.10;51.60
51476;DHT22;37554;50.362;7.568;2024-02-21T13:27:53;18.00;51.50
51476;DHT22;37554;50.362;7.568;2024-02-21T13:30:19;18.00;51.90
51476;DHT22;37554;50.362;7.568;2024-02-21T13:32:44;18.00;51.50
51476;DHT22;37554;50.362;7.568;2024-02-21T13:35:13;18.10;51.60
51476;DHT22;37554;50.362;7.568;2024-02-21T13:37:40;18.10;51.50
51476;DHT22;37554;50.362;7.568;2024-02-21T13:40:06;18.20;51.50
51476;DHT22;37554;50.362;7.568;2024-02-21T13:42:34;18.20;51.50
51476;DHT22;37554;50.362;7.568;2024-02-21T13:45:00;18.20;51.50
51476;DHT22;37554;50.362;7.568;2024-02-21T13:47:26;18.20;51.50
51476;DHT22;37554;50.362;7.568;2024-02-21T13:49:52;18.10;49.60
51476;DHT22;37554;50.362;7.568;2024-02-21T13:52:17;17.90;48.50
51476;DHT22;37554;50.362;7.568;2024-02-21T13:54:47;17.70;48.00
51476;DHT22;37554;50.362;7.568;2024-02-21T13:57:12;17.60;47.80
51476;DHT22;37554;50.362;7.568;2024-02-21T13:59:39;17.60;47.60
51476;DHT22;37554;50.362;7.568;2024-02-21T14:02:05;17.60;47.40
51476;DHT22;37554;50.362;7.568;2024-02-21T14:04:33;17.70;47.50
51476;DHT22;37554;50.362;7.568;2024-02-21T14:06:59;17.90;47.60
51476;DHT22;37554;50.362;7.568;2024-02-21T14:09:26;18.10;47.30
51476;DHT22;37554;50.362;7.568;2024-02-21T14:11:51;18.30;47.30
51476;DHT22;37554;50.362;7.568;2024-02-21T14:14:17;18.40;47.30
51476;DHT22;37554;50.362;7.568;2024-02-21T14:16:43;18.40;47.40
51476;DHT22;37554;50.362;7.568;2024-02-21T14:19:08;18.40;47.50
51476;DHT22;37554;50.362;7.568;2024-02-21T14:21:34;18.40;47.70
51476;DHT22;37554;50.362;7.568;2024-02-21T14:24:04;18.40;47.80
51476;DHT22;37554;50.362;7.568;2024-02-21T14:26:30;18.30;48.70
51476;DHT22;37554;50.362;7.568;2024-02-21T14:28:57;18.30;48.30
51476;DHT22;37554;50.362;7.568;2024-02-21T14:31:23;18.30;48.50
51476;DHT22;37554;50.362;7.568;2024-02-21T14:33:48;18.20;48.60
51476;DHT22;37554;50.362;7.568;2024-02-21T14:36:14;18.20;48.80
51476;DHT22;37554;50.362;7.568;2024-02-21T14:38:43;18.10;48.90
51476;DHT22;37554;50.362;7.568;2024-02-21T14:41:10;18.10;49.10
51476;DHT22;37554;50.362;7.568;2024-02-21T14:43:38;18.00;49.20
51476;DHT22;37554;50.362;7.568;2024-02-21T14:46:04;18.00;49.40
51476;DHT22;37554;50.362;7.568;2024-02-21T14:48:31;18.00;49.50
51476;DHT22;37554;50.362;7.568;2024-02-21T14:50:58;17.90;49.60
51476;DHT22;37554;50.362;7.568;2024-02-21T14:53:23;17.90;49.80
51476;DHT22;37554;50.362;7.568;2024-02-21T14:55:50;17.80;50.00
51476;DHT22;37554;50.362;7.568;2024-02-21T14:58:16;17.80;50.10
51476;DHT22;37554;50.362;7.568;2024-02-21T15:00:43;17.70;50.20
51476;DHT22;37554;50.362;7.568;2024-02-21T15:03:09;17.70;50.40
51476;DHT22;37554;50.362;7.568;2024-02-21T15:05:36;17.60;51.00
51476;DHT22;37554;50.362;7.568;2024-02-21T15:08:03;17.60;50.70
51476;DHT22;37554;50.362;7.568;2024-02-21T15:10:28;17.60;50.80
51476;DHT22;37554;50.362;7.568;2024-02-21T15:12:54;17.50;50.80
51476;DHT22;37554;50.362;7.568;2024-02-21T15:15:20;17.50;50.90
51476;DHT22;37554;50.362;7.568;2024-02-21T15:17:45;17.50;50.90
51476;DHT22;37554;50.362;7.568;2024-02-21T15:20:11;17.50;50.90
51476;DHT22;37554;50.362;7.568;2024-02-21T15:22:37;17.50;50.90
51476;DHT22;37554;50.362;7.568;2024-02-21T15:25:03;17.40;51.00
51476;DHT22;37554;50.362;7.568;2024-02-21T15:27:32;17.40;51.10
51476;DHT22;37554;50.362;7.568;2024-02-21T15:29:57;17.40;51.10
51476;DHT22;37554;50.362;7.568;2024-02-21T15:32:23;17.40;51.20